• Join FlightAware (Why Join?)
  • Login
  • US Flag 
03:32AM EST


 

Airport Tracker/Info


-or-


 

Live Flight TrackerFlight Track Log ✈ PDT4309 ✈ 28-Jul-2013 ✈ KPGV - KCLT

Flight Track Log - Related Links

Times and Time Zones

All times are in EDT time to prevent confusion due to time zone crossing. See the PDT4309 flight status page for this flight to view local times or setup timezone preferences in your user account.

Time Position Orientation Groundspeed Altitude Reporting Facility
EDT Latitude Longitude Course Direction KTS MPH feet Rate Location/Type
05:52PM 35.6698 -77.5990 284° West  Level FlightAware Approximate
05:52PM 35.6631 -77.3611 36° Northeast 246 283 3,400  Level Washington Center
05:53PM 35.6833 -77.4050 300° West 163 188 4,600 1,320 Climbing Washington Center
05:54PM 35.6844 -77.4664 271° West 158 182 6,100 1,380 Climbing Washington Center
05:55PM 35.6878 -77.5203 274° West 158 182 7,400 1,320 Climbing Washington Center
05:56PM 35.6931 -77.5792 276° West 169 194 8,800 1,140 Climbing Washington Center
05:57PM 35.6964 -77.6356 274° West 169 194 9,700 600 Climbing Washington Center
05:58PM 35.7014 -77.6969 276° West 174 200 10,000 120 Climbing Washington Center
05:59PM 35.7044 -77.7714 273° West 196 226 10,000  Level Washington Center
06:00PM 35.7114 -77.8456 277° West 213 245 10,000  Level Washington Center
06:01PM 35.7161 -77.9250 274° West 227 261 10,000  Level Washington Center
06:02PM 35.7208 -78.0019 274° West 232 267 10,000  Level Washington Center
06:03PM 35.7253 -78.0842 274° West 237 273 10,000  Level Washington Center
06:04PM 35.7319 -78.1636 276° West 237 273 10,000  Level Washington Center
06:05PM 35.7367 -78.2431 274° West 237 273 10,000  Level Washington Center
06:06PM 35.7411 -78.3225 274° West 237 273 10,000  Level Washington Center
06:07PM 35.7456 -78.4019 274° West 237 273 10,000  Level Washington Center
06:08PM 35.7519 -78.4817 276° West 237 273 10,000  Level Washington Center
06:09PM 35.7542 -78.5611 272° West 237 273 10,000  Level Washington Center
06:10PM 35.7606 -78.6381 276° West 237 273 10,000  Level Washington Center
06:11PM 35.7647 -78.7175 274° West 237 273 10,000  Level Washington Center
06:12PM 35.7664 -78.8175 271° West 234 269 10,000  Level Washington Center
06:13PM 35.7683 -78.8969 272° West 234 269 10,000  Level Washington Center
06:14PM 35.7744 -78.9764 275° West 233 268 10,000  Level Washington Center
06:15PM 35.7806 -79.0561 275° West 231 266 10,000  Level Washington Center
06:16PM 35.7844 -79.1356 273° West 229 264 10,000 -300 Level Washington Center
06:18PM 35.7901 -79.2490 274° West  Level FlightAware Approximate
06:25PM 35.8004 -79.7311 270° West  Level FlightAware Approximate
06:26PM 35.8005 -79.8000 270° West  Level FlightAware Approximate
06:27PM 35.8006 -79.8690 270° West  Level FlightAware Approximate
06:28PM 35.8007 -79.9379 270° West  Level FlightAware Approximate
06:29PM 35.8007 -80.0068 270° West  Level FlightAware Approximate
06:30PM 35.8007 -80.0757 270° West  Level FlightAware Approximate
06:30PM 35.8125 -80.2617 270° West 245 282 6,000  Level Atlanta Center
06:30PM 35.8142 -80.3181 272° West 238 274 6,000  Level Atlanta Center
06:31PM 35.8006 -80.1447 270° West  Level FlightAware Approximate
06:31PM 35.8103 -80.4000 267° West 238 274 6,000  Level Atlanta Center
06:32PM 35.8005 -80.2136 270° West  Level FlightAware Approximate
06:32PM 35.7789 -80.4681 240° Southwest 240 276 6,000  Level Atlanta Center
06:33PM 35.8004 -80.2825 270° West  Level FlightAware Approximate
06:34PM 35.8002 -80.3514 270° West  Level FlightAware Approximate
06:34PM 35.7350 -80.5389 233° Southwest 238 274 6,000  Level Atlanta Center
06:35PM 35.8000 -80.4204 270° West  Level FlightAware Approximate
06:35PM 35.7058 -80.6092 243° Southwest 236 272 6,000  Level Atlanta Center
06:36PM 35.6850 -80.6844 251° West 239 275 6,000 -180 Level Atlanta Center
06:37PM 35.6664 -80.7719 255° West 239 275 5,700 -540 Descending Atlanta Center
06:38PM 35.6386 -80.8292 239° Southwest 215 247 5,000 -900 Descending Atlanta Center
06:39PM 35.6219 -80.9042 255° West 221 254 4,000 -540 Descending Atlanta Center
06:40PM 35.5983 -80.9586 242° Southwest 187 215 4,000  Level Atlanta Center
06:41PM 35.5506 -80.9681 189° South 178 205 4,000  Level Atlanta Center
06:42PM 35.4961 -80.9650 177° South 176 203 4,000  Level Atlanta Center
06:43PM 35.4481 -80.9567 172° South 174 200 4,000 -60 Level Atlanta Center
06:44PM 35.4019 -80.9533 177° South 168 193 3,900 -480 Descending Atlanta Center
06:45PM 35.3561 -80.9525 179° South 166 191 3,100 -840 Descending Atlanta Center
06:46PM 35.3081 -80.9467 174° South 167 192 2,200 -840 Descending Atlanta Center
06:47PM 35.2661 -80.9431 176° South 149 171 1,500 -660 Descending Atlanta Center
06:48PM 35.2306 -80.9392 175° South 116 133 900 -600 Descending Atlanta Center